Pagrindinis puslapis
METAR-TAF:

METAR-TAF

Oro uostai :

Sharurah, Saudo Arabija

platuma: 17-28N, ilguma: 047-07E, Aukštis: 720 m

Dabartinis oras

Ataskaita buvo paskelbta 20 minutes, ne 20:00 UTC
Vėjas 6 kt iš Rytų/Šiaurės Rytų
Temperatūra 32°C
Drėgmė 15%
Slėgis 1009 hPa
Matomumas 10 km arba daugiau
nėra debesų žemiau 1500 m ir nėra kamuolinių lietaus debesų

METAR: OESH 222000Z 07006KT CAVOK 32/02 Q1009 NOSIG

Laikas: 23:20 (20:20 UTC)

Prognozė

Ataskaita buvo paskelbta 9 valandos ir 20 minutes, ne 11:00 UTC
Prognozė galioja nuo 22 metu 12 UTC su 23 metu 18 UTC
Vėjas 15 kt iš Šiaurės
Matomumas: 5000 m
Dulkes pustymas
Laikinai
nuo 22 metu 12 UTC su 22 metu 16 UTC
Matomumas: 2000 m
Smėlio pustymas
Tapsmas
nuo 22 metu 18 UTC su 22 metu 20 UTC
Vėjas 3 kt nuo kintamojo kryptimis
Matomumas: 7000 m

TAF: OESH 221100Z 2212/2318 36015KT 5000 BLDU NSC TEMPO 2212/2216 2000 BLSA BECMG 2218/2220 VRB03KT 7000 NSC

Orai ataskaitas ir orų prognozės (METAR, TAF).

turimą stotys yra geltonos ir raudonos taškus žemėlapyje.

Perkelti pele per norėdami pamatyti stoties vardą.

Tada spustelėkite, norėdami matyti oro stebėjimo ir prognozės.

Norėdami pakeisti žemėlapį: spustelėkite ant žalios mygtukų su juodo kryžiaus žemyn,; žalią mygtuką su brūkšneliu, jei norite nutolinti; arba žalių rodyklių gretimoms žemėlapius.


METAR-TAF: